Centre Hospitalier Heliport

FR-0029 · Allier, Auvergne-Rhône-Alpes, 法国

使用的METAR站距离机场55 km。
罗盘
风向 的 直升机
风: 3 kt, 1 beaufort
0 ft 1.000 2.000 3.000 4.000 5.000
Cloud Cloud
FEW 2.800
Cloud Cloud Cloud Cloud
SCT 4.200
Cloud Cloud Cloud Cloud Cloud Cloud
BKN 4.800
METAR LFLN 212330Z AUTO VRB03KT 9999 FEW028 SCT042 BKN048 16/15 Q1019

METAR Centre Hospitalier Heliport - FR-0029

Centre Hospitalier Heliport是,法国中的直升机场。 该机场位于纬度46,56667和经度3,33333。 这个机场没有ICAO代码,我们使用FR-0029作为参考。 机场在Marseille FIR中。

该航空气象观测是针对Saint-Yan Airport在2024年6月22日 01:30, 当地时间进行的。

机场观察

可变方向的风很小或没有风。

可见度为10 km 或者更多。

有几云在2.800 ft的高度, 疏云,零星散落的云朵在4.200 ft的高度 和 碎云在4.800 ft的高度。 破损或更高的上限为4.800 ft。

温度和风寒是16 °C。 露点为15 °C,相对湿度为94%。 海平面上的气压为1019 hPa (QNH)。

白天

今天,太阳从05:53升起,在21:43降落。 这适用于Centre Hospitalier Heliport,世界夏令时可能有所不同。 当地时间与世界标准时间之间的时差为+2 小时。 夏令时目前正在进行中。

公司介绍

我们没有关于这个机场的公司信息。

体会

到Vliegles.nl去找飞行课程,跳伞和其他飞行体验。 浏览页面,了解Centre Hospitalier Heliport附近所有可用的活动。 你也可以使用搜索功能来寻找你所在地附近的特定飞行课程、跳伞或其他飞行体验。

乌云

2.800 ft FEW 几云
4.200 ft SCT 疏云,零星散落的云朵
4.800 ft BKN 碎云

温度 & 天气

温度 16 °C
露点 15 °C
相对湿度 94%
Kp-index 1 (0-9)

白天

日出
05:51 (4:04)
中午
13:45
日落
21:40

小工具

你想在你的网站上有一个关于Centre Hospitalier Heliport的当前航空天气(METAR)的小部件吗?

显示HTML代码
报告变更